createdAt,value
2016-12-23T00:02:34.790Z,4.31
2016-12-23T00:05:28.419Z,4.31
2016-12-23T00:11:16.805Z,4.32
2016-12-23T00:19:57.204Z,4.34
2016-12-23T00:22:50.970Z,4.35
2016-12-23T00:31:32.503Z,4.37
2016-12-23T00:37:20.071Z,4.38
2016-12-23T00:40:13.650Z,4.39
2016-12-23T00:43:07.500Z,4.39
2016-12-23T00:46:01.135Z,4.40
2016-12-23T00:48:54.920Z,4.40
2016-12-23T00:54:42.601Z,4.42
2016-12-23T00:57:36.408Z,4.42
2016-12-23T01:03:24.113Z,4.45
2016-12-23T01:06:17.732Z,4.46
2016-12-23T01:09:11.582Z,4.46
2016-12-23T01:20:46.579Z,4.48
2016-12-23T01:23:41.310Z,4.49
2016-12-23T01:26:34.131Z,4.49
2016-12-23T01:29:27.812Z,4.48
2016-12-23T01:32:21.558Z,4.47
2016-12-23T01:35:15.347Z,4.45
2016-12-23T01:41:02.721Z,4.45
2016-12-23T01:43:56.520Z,4.47
2016-12-23T01:46:50.305Z,4.48
2016-12-23T01:49:44.600Z,4.48
2016-12-23T01:52:38.423Z,4.48
2016-12-23T01:55:32.069Z,4.49
2016-12-23T01:58:25.780Z,4.49
2016-12-23T02:01:19.532Z,4.51
2016-12-23T02:04:13.391Z,4.52
2016-12-23T02:10:00.844Z,4.53
2016-12-23T02:15:48.289Z,4.52
2016-12-23T02:18:42.243Z,4.55
2016-12-23T02:21:36.056Z,4.54
2016-12-23T02:24:29.917Z,4.54
2016-12-23T02:27:23.721Z,4.55
2016-12-23T02:30:17.539Z,4.56
2016-12-23T02:33:11.655Z,4.56
2016-12-23T02:36:05.426Z,4.55
2016-12-23T02:41:52.949Z,4.55
2016-12-23T02:44:46.795Z,4.55
2016-12-23T02:53:28.275Z,4.54
2016-12-23T02:59:15.762Z,4.58
2016-12-23T03:02:09.951Z,4.58
2016-12-23T03:07:57.472Z,4.59
2016-12-23T03:22:27.331Z,4.63
2016-12-23T03:25:20.192Z,4.61
2016-12-23T03:28:14.119Z,4.61
2016-12-23T03:31:08.435Z,4.61
2016-12-23T03:34:02.202Z,4.61
2016-12-23T03:36:55.969Z,4.62
2016-12-23T03:42:43.380Z,4.60
2016-12-23T03:45:37.095Z,4.59
2016-12-23T03:48:31.239Z,4.56
2016-12-23T03:51:24.975Z,4.52
2016-12-23T03:54:18.666Z,4.47
2016-12-23T03:57:12.450Z,4.41
2016-12-23T04:00:07.101Z,4.36
2016-12-23T04:02:59.786Z,4.32
2016-12-23T04:05:53.493Z,4.29
2016-12-23T04:11:41.293Z,4.24
2016-12-23T04:14:34.964Z,4.21
2016-12-23T04:23:16.019Z,4.17
2016-12-23T04:26:09.686Z,4.16
2016-12-23T04:31:57.173Z,4.16
2016-12-23T04:34:50.733Z,4.18
2016-12-23T04:40:38.010Z,4.23
2016-12-23T04:46:25.682Z,4.30
2016-12-23T04:49:19.414Z,4.33
2016-12-23T04:52:13.094Z,4.35
2016-12-23T04:55:06.763Z,4.36
2016-12-23T05:00:54.231Z,4.35
2016-12-23T05:03:47.857Z,4.35
2016-12-23T05:09:35.224Z,4.29
2016-12-23T05:15:22.588Z,4.21
2016-12-23T05:18:16.181Z,4.18
2016-12-23T05:24:03.379Z,4.11
2016-12-23T05:26:57.168Z,4.08
2016-12-23T05:29:50.711Z,4.04
2016-12-23T05:32:44.487Z,4.00
2016-12-23T05:35:38.138Z,3.96
2016-12-23T05:38:31.751Z,3.92
2016-12-23T05:41:25.326Z,3.89
2016-12-23T05:44:18.969Z,3.86
2016-12-23T05:47:12.651Z,3.84
2016-12-23T05:50:06.249Z,3.81
2016-12-23T05:52:59.828Z,3.78
2016-12-23T05:55:53.618Z,3.75
2016-12-23T05:58:47.187Z,3.72
2016-12-23T06:01:40.915Z,3.70
2016-12-23T06:04:34.538Z,3.67
2016-12-23T06:10:22.068Z,3.62
2016-12-23T06:16:09.384Z,3.60
2016-12-23T06:19:03.045Z,3.59
2016-12-23T06:21:56.766Z,3.59
2016-12-23T06:27:44.052Z,3.57
2016-12-23T06:30:38.505Z,3.55
2016-12-23T06:36:24.637Z,3.50
2016-12-23T06:39:18.130Z,3.49
2016-12-23T06:45:05.289Z,3.46
2016-12-23T06:47:58.825Z,3.44
2016-12-23T06:50:52.389Z,3.43
2016-12-23T06:53:46.415Z,3.43
2016-12-23T06:59:33.713Z,3.46
2016-12-23T07:02:28.374Z,3.47
2016-12-23T07:05:20.940Z,3.51
2016-12-23T07:08:14.640Z,3.55
2016-12-23T07:11:08.227Z,3.60
2016-12-23T07:14:01.841Z,3.65
2016-12-23T07:16:55.626Z,3.70
2016-12-23T07:19:49.259Z,3.75
2016-12-23T07:25:36.697Z,3.79
2016-12-23T07:28:30.348Z,3.80
2016-12-23T07:31:24.023Z,3.82
2016-12-23T07:34:17.755Z,3.84
2016-12-23T07:40:05.141Z,3.90
2016-12-23T07:42:58.780Z,3.93
2016-12-23T07:45:52.505Z,3.95
2016-12-23T07:48:46.254Z,3.97
2016-12-23T07:54:33.494Z,4.00
2016-12-23T07:57:27.144Z,4.02
2016-12-23T08:00:20.837Z,4.04
2016-12-23T08:03:14.453Z,4.07
2016-12-23T08:06:08.226Z,4.07
2016-12-23T08:09:01.845Z,4.08
2016-12-23T08:14:49.510Z,4.13
2016-12-23T08:17:43.258Z,4.15
2016-12-23T08:20:36.960Z,4.16
2016-12-23T08:23:30.545Z,4.18
2016-12-23T08:26:24.169Z,4.19
2016-12-23T08:29:17.874Z,4.21
2016-12-23T08:35:05.286Z,4.24
2016-12-23T08:37:58.945Z,4.27
2016-12-23T08:40:52.617Z,4.29
2016-12-23T08:43:46.246Z,4.32
2016-12-23T08:46:40.928Z,4.36
2016-12-23T08:49:33.638Z,4.39
2016-12-23T08:58:14.578Z,4.48
2016-12-23T09:01:08.281Z,4.50
2016-12-23T09:06:56.130Z,4.52
2016-12-23T09:09:49.896Z,4.54
2016-12-23T09:12:43.512Z,4.57
2016-12-23T09:15:37.232Z,4.58
2016-12-23T09:18:30.914Z,4.58
2016-12-23T09:21:24.614Z,4.59
2016-12-23T09:24:18.321Z,4.60
2016-12-23T09:27:12.068Z,4.60
2016-12-23T09:30:05.819Z,4.60
2016-12-23T09:35:54.175Z,4.58
2016-12-23T09:41:41.198Z,4.57
2016-12-23T09:47:28.647Z,4.59
2016-12-23T09:50:22.343Z,4.57
2016-12-23T09:56:09.980Z,4.53
2016-12-23T09:59:03.780Z,4.54
2016-12-23T10:01:57.455Z,4.55
2016-12-23T10:04:51.223Z,4.56
2016-12-23T10:10:38.490Z,4.57
2016-12-23T10:13:32.153Z,4.58
2016-12-23T10:16:26.846Z,4.57
2016-12-23T10:25:07.001Z,4.57
2016-12-23T10:28:00.547Z,4.59
2016-12-23T10:33:48.194Z,4.60
2016-12-23T10:36:41.743Z,4.60
2016-12-23T10:42:29.046Z,4.61
2016-12-23T10:45:22.780Z,4.59
2016-12-23T10:51:10.347Z,4.62
2016-12-23T10:54:04.013Z,4.63
2016-12-23T10:56:57.753Z,4.66
2016-12-23T10:59:51.509Z,4.71
2016-12-23T11:05:39.009Z,4.74
2016-12-23T11:08:32.712Z,4.76
2016-12-23T11:11:26.335Z,4.78
2016-12-23T11:14:20.050Z,4.81
2016-12-23T11:17:13.783Z,4.83
2016-12-23T11:28:48.898Z,4.87
2016-12-23T11:34:36.452Z,4.87
2016-12-23T11:37:30.131Z,4.88
2016-12-23T11:43:18.544Z,4.90
2016-12-23T11:46:11.532Z,4.91
2016-12-23T11:49:05.414Z,4.92
2016-12-23T11:51:59.071Z,4.93
2016-12-23T12:00:40.131Z,5.01
2016-12-23T12:06:27.463Z,5.06
2016-12-23T12:09:21.237Z,5.11
2016-12-23T12:12:15.044Z,5.13
2016-12-23T12:15:08.801Z,5.16
2016-12-23T12:18:02.618Z,5.19
2016-12-23T12:26:44.972Z,5.27
2016-12-23T12:32:31.447Z,5.34
2016-12-23T12:35:25.130Z,5.36
2016-12-23T12:38:18.913Z,5.39
2016-12-23T12:41:13.655Z,5.44
2016-12-23T12:44:06.532Z,5.48
2016-12-23T12:49:54.110Z,5.55
2016-12-23T12:52:47.799Z,5.57
2016-12-23T12:55:41.417Z,5.59
2016-12-23T12:58:35.181Z,5.61
2016-12-23T13:01:28.860Z,5.62
2016-12-23T13:04:22.748Z,5.64
2016-12-23T13:07:16.501Z,5.66
2016-12-23T13:10:10.268Z,5.68
2016-12-23T13:15:58.108Z,5.69
2016-12-23T13:18:51.905Z,5.69
2016-12-23T13:21:45.746Z,5.71
2016-12-23T13:24:39.579Z,5.73
2016-12-23T13:27:33.359Z,5.74
2016-12-23T13:36:14.657Z,5.73
2016-12-23T13:39:08.421Z,5.72
2016-12-23T13:44:56.024Z,5.74
2016-12-23T13:50:43.538Z,5.73
2016-12-23T13:53:37.416Z,5.71
2016-12-23T13:56:31.235Z,5.69
2016-12-23T13:59:24.968Z,5.68
2016-12-23T14:05:12.646Z,5.64
2016-12-23T14:11:00.424Z,5.64
2016-12-23T14:13:54.221Z,5.66
2016-12-23T14:19:41.980Z,5.69
2016-12-23T14:22:35.780Z,5.69
2016-12-23T14:25:29.670Z,5.69
2016-12-23T14:28:23.558Z,5.70
2016-12-23T14:31:17.325Z,5.71
2016-12-23T14:34:11.037Z,5.71
2016-12-23T14:37:04.920Z,5.72
2016-12-23T14:39:58.694Z,5.73
2016-12-23T14:42:52.561Z,5.75
2016-12-23T14:45:46.392Z,5.74
2016-12-23T14:51:34.018Z,5.73
2016-12-23T14:54:27.901Z,5.73
2016-12-23T14:57:21.768Z,5.73
2016-12-23T15:00:15.677Z,5.73
2016-12-23T15:03:09.503Z,5.74
2016-12-23T15:06:03.361Z,5.76
2016-12-23T15:08:57.072Z,5.76
2016-12-23T15:11:51.001Z,5.77
2016-12-23T15:20:32.526Z,5.81
2016-12-23T15:23:26.316Z,5.82
2016-12-23T15:26:20.105Z,5.84
2016-12-23T15:29:13.831Z,5.85
2016-12-23T15:32:07.594Z,5.86
2016-12-23T15:35:01.349Z,5.87
2016-12-23T15:37:55.089Z,5.89
2016-12-23T15:43:43.184Z,5.91
2016-12-23T15:46:36.988Z,5.91
2016-12-23T15:49:31.848Z,5.93
2016-12-23T15:58:12.378Z,5.93
2016-12-23T16:01:06.222Z,5.93
2016-12-23T16:04:00.063Z,5.93
2016-12-23T16:09:47.715Z,5.93
2016-12-23T16:12:41.484Z,5.92
2016-12-23T16:15:35.353Z,5.91
2016-12-23T16:18:29.132Z,5.91
2016-12-23T16:24:16.930Z,5.90
2016-12-23T16:27:10.603Z,5.91
2016-12-23T16:30:04.382Z,5.91
2016-12-23T16:32:58.203Z,5.93
2016-12-23T16:35:52.068Z,5.93
2016-12-23T16:44:33.808Z,5.89
2016-12-23T16:47:27.660Z,5.87
2016-12-23T16:50:21.496Z,5.86
2016-12-23T16:53:15.191Z,5.84
2016-12-23T16:56:08.869Z,5.81
2016-12-23T16:59:02.680Z,5.77
2016-12-23T17:01:56.585Z,5.75
2016-12-23T17:04:50.396Z,5.73
2016-12-23T17:13:31.772Z,5.68
2016-12-23T17:19:19.319Z,5.66
2016-12-23T17:22:13.188Z,5.65
2016-12-23T17:25:07.000Z,5.64
2016-12-23T17:28:00.750Z,5.64
2016-12-23T17:33:48.369Z,5.61
2016-12-23T17:36:42.209Z,5.59
2016-12-23T17:39:35.988Z,5.56
2016-12-23T17:42:29.787Z,5.53
2016-12-23T17:45:23.541Z,5.49
2016-12-23T17:48:17.426Z,5.43
2016-12-23T17:54:05.534Z,5.32
2016-12-23T18:05:40.625Z,5.09
2016-12-23T18:08:34.369Z,5.05
2016-12-23T18:11:28.056Z,5.01
2016-12-23T18:17:15.595Z,4.95
2016-12-23T18:20:09.271Z,4.90
2016-12-23T18:23:03.068Z,4.87
2016-12-23T18:25:56.670Z,4.84
2016-12-23T18:28:50.428Z,4.82
2016-12-23T18:31:44.073Z,4.78
2016-12-23T18:40:25.151Z,4.66
2016-12-23T18:46:12.396Z,4.62
2016-12-23T18:49:07.092Z,4.64
2016-12-23T18:57:47.448Z,4.63
2016-12-23T19:00:41.703Z,4.63
2016-12-23T19:03:35.357Z,4.63
2016-12-23T19:18:04.345Z,4.53
2016-12-23T19:20:58.383Z,4.49
2016-12-23T19:23:52.307Z,4.47
2016-12-23T19:26:45.892Z,4.46
2016-12-23T19:29:39.509Z,4.45
2016-12-23T19:32:33.286Z,4.44
2016-12-23T19:35:27.044Z,4.42
2016-12-23T19:38:20.653Z,4.41
2016-12-23T19:44:07.915Z,4.40
2016-12-23T19:47:01.559Z,4.38
2016-12-23T19:52:48.855Z,4.37
2016-12-23T19:55:42.443Z,4.35
2016-12-23T19:58:37.103Z,4.35
2016-12-23T20:01:29.898Z,4.34
2016-12-23T20:04:23.468Z,4.34
2016-12-23T20:07:17.079Z,4.33
2016-12-23T20:10:10.754Z,4.33
2016-12-23T20:18:51.805Z,4.36
2016-12-23T20:21:45.522Z,4.36
2016-12-23T20:30:26.842Z,4.38
2016-12-23T20:33:20.539Z,4.39
2016-12-23T20:36:14.136Z,4.38
2016-12-23T20:39:07.799Z,4.37
2016-12-23T20:42:02.067Z,4.38
2016-12-23T20:44:55.746Z,4.38
2016-12-23T20:47:49.459Z,4.39
2016-12-23T20:50:43.087Z,4.38
2016-12-23T20:53:36.758Z,4.40
2016-12-23T20:56:30.382Z,4.41
2016-12-23T20:59:24.094Z,4.41
2016-12-23T21:02:18.678Z,4.41
2016-12-23T21:05:11.393Z,4.42
2016-12-23T21:08:05.044Z,4.42
2016-12-23T21:10:58.804Z,4.40
2016-12-23T21:13:52.489Z,4.38
2016-12-23T21:19:39.763Z,4.33
2016-12-23T21:22:33.444Z,4.28
2016-12-23T21:25:27.100Z,4.24
2016-12-23T21:28:20.661Z,4.20
2016-12-23T21:31:14.326Z,4.16
2016-12-23T21:34:08.524Z,4.11
2016-12-23T21:37:02.125Z,4.08
2016-12-23T21:45:43.010Z,3.97
2016-12-23T21:48:36.591Z,3.94
2016-12-23T21:51:30.719Z,3.91
2016-12-23T22:00:11.524Z,3.84
2016-12-23T22:05:58.935Z,3.79
2016-12-23T22:08:52.570Z,3.77
2016-12-23T22:17:33.844Z,3.72
2016-12-23T22:20:27.404Z,3.70
2016-12-23T22:23:21.064Z,3.67
2016-12-23T22:26:14.670Z,3.63
2016-12-23T22:29:08.301Z,3.59
2016-12-23T22:34:55.745Z,3.54
2016-12-23T22:37:49.847Z,3.52
2016-12-23T22:40:43.626Z,3.50
2016-12-23T22:43:37.249Z,3.48
2016-12-23T22:49:24.942Z,3.46
2016-12-23T22:55:12.357Z,3.42
2016-12-23T22:58:05.953Z,3.39
2016-12-23T23:00:59.559Z,3.38
2016-12-23T23:03:54.088Z,3.36
2016-12-23T23:06:46.763Z,3.34
2016-12-23T23:09:40.341Z,3.33
2016-12-23T23:12:33.937Z,3.30
2016-12-23T23:18:21.231Z,3.24
2016-12-23T23:21:14.883Z,3.21
2016-12-23T23:24:08.461Z,3.19
2016-12-23T23:29:55.710Z,3.16
2016-12-23T23:32:49.331Z,3.14
2016-12-23T23:35:42.892Z,3.11
2016-12-23T23:41:30.126Z,3.08
2016-12-23T23:50:10.725Z,3.02
2016-12-23T23:53:05.303Z,2.98
2016-12-23T23:58:52.388Z,2.92
